Time;durP1;ratioP1;P1;durP2;ratioP2;P2;SDS_P1;SDS_P2;PMS_P1;PMS_P2;Temp;Humidity;BMP_temperature;BMP_pressure;BME280_temperature;BME280_humidity;BME280_pressure;Samples;Min_cycle;Max_cycle;Signal;HPM_P1;HPM_P2
2022/04/06 00:01:18;;;;;;;4.90;2.20;;;1.90;99.90;0.90;98482;;;;594807;242;24107;-83
2022/04/06 00:03:47;;;;;;;3.07;2.00;;;1.90;99.90;1.00;98483;;;;594935;238;24120;-84
2022/04/06 00:06:14;;;;;;;4.67;2.27;;;1.90;99.90;0.90;98488;;;;585520;242;24092;-86
2022/04/06 00:08:42;;;;;;;4.33;2.33;;;1.90;99.90;0.90;98493;;;;585386;242;24123;-83
2022/04/06 00:11:13;;;;;;;2.53;2.10;;;1.80;99.90;0.90;98486;;;;584985;242;24111;-84
2022/04/06 00:13:43;;;;;;;6.07;1.90;;;1.80;99.90;0.80;98482;;;;593790;241;24063;-83
2022/04/06 00:16:10;;;;;;;1.73;1.63;;;1.70;99.90;0.80;98487;;;;587321;242;24121;-81
2022/04/06 00:18:35;;;;;;;3.27;2.47;;;1.70;99.90;0.80;98482;;;;584134;241;24103;-80
2022/04/06 00:21:04;;;;;;;2.90;2.07;;;1.70;99.90;0.80;98487;;;;584106;242;24062;-83
2022/04/06 00:23:35;;;;;;;2.10;1.93;;;1.70;99.90;0.80;98486;;;;581937;242;24227;-83
2022/04/06 00:26:00;;;;;;;4.17;2.30;;;1.70;99.90;0.90;98488;;;;582386;242;24081;-82
2022/04/06 00:28:31;;;;;;;4.77;2.87;;;1.80;99.90;0.90;98494;;;;583951;242;24053;-81
2022/04/06 00:30:59;;;;;;;3.57;2.20;;;1.80;99.90;0.90;98488;;;;583906;242;24124;-80
2022/04/06 00:33:24;;;;;;;2.70;1.90;;;1.80;99.90;0.90;98490;;;;584052;242;24112;-83
2022/04/06 00:35:52;;;;;;;2.37;2.17;;;1.80;99.90;1.00;98491;;;;584384;242;24057;-82
2022/04/06 00:38:20;;;;;;;3.03;2.50;;;1.90;99.90;0.90;98490;;;;587372;242;24047;-81
2022/04/06 00:40:48;;;;;;;4.10;2.20;;;1.80;99.90;0.80;98482;;;;587168;242;24101;-82
2022/04/06 00:43:19;;;;;;;3.70;1.87;;;1.70;99.90;0.80;98483;;;;584376;242;24107;-81
2022/04/06 00:45:44;;;;;;;4.43;2.20;;;1.70;99.90;0.70;98480;;;;584291;242;24080;-83
2022/04/06 00:48:16;;;;;;;2.20;2.00;;;1.60;99.90;0.60;98482;;;;582157;242;24100;-82
2022/04/06 00:50:44;;;;;;;4.43;2.03;;;1.40;99.90;0.50;98480;;;;592740;242;24091;-82
2022/04/06 00:53:09;;;;;;;5.23;2.07;;;1.40;99.90;0.40;98484;;;;585111;241;24078;-83
2022/04/06 00:55:40;;;;;;;3.57;1.70;;;1.40;99.90;0.40;98477;;;;594237;241;24090;-83
2022/04/06 00:58:09;;;;;;;3.47;2.27;;;1.30;99.90;0.40;98490;;;;582296;241;24101;-83
2022/04/06 01:00:34;;;;;;;3.03;2.20;;;1.30;99.90;0.30;98482;;;;584573;241;24063;-83
2022/04/06 01:03:05;;;;;;;2.50;2.10;;;1.30;99.90;0.30;98491;;;;584459;242;24086;-85
2022/04/06 01:05:32;;;;;;;5.30;2.37;;;1.30;99.90;0.30;98492;;;;584715;242;24069;-84
2022/04/06 01:08:00;;;;;;;7.63;2.57;;;1.30;99.90;0.30;98497;;;;585036;242;24109;-84
2022/04/06 01:10:29;;;;;;;2.90;2.23;;;1.30;99.90;0.30;98498;;;;584974;242;24083;-81
2022/04/06 01:12:53;;;;;;;6.33;2.33;;;1.30;99.90;0.30;98501;;;;584568;242;24191;-85
2022/04/06 01:15:23;;;;;;;2.70;2.03;;;1.30;99.90;0.30;98505;;;;584829;242;24065;-85
2022/04/06 01:17:49;;;;;;;2.60;2.10;;;1.30;99.90;0.30;98503;;;;587762;242;24049;-85
2022/04/06 01:20:17;;;;;;;6.00;2.97;;;1.30;99.90;0.40;98502;;;;584766;242;24114;-85
2022/04/06 01:22:45;;;;;;;4.90;3.33;;;1.30;99.90;0.30;98512;;;;584862;242;24124;-84
2022/04/06 01:25:13;;;;;;;8.63;3.47;;;1.30;99.90;0.30;98509;;;;584947;242;24124;-85
2022/04/06 01:27:42;;;;;;;6.00;4.10;;;1.20;99.90;0.20;98521;;;;581781;242;24064;-84
2022/04/06 01:30:12;;;;;;;7.30;4.10;;;1.20;99.90;0.20;98517;;;;581864;242;24079;-84
2022/04/06 01:32:38;;;;;;;6.07;4.37;;;1.10;99.90;0.20;98521;;;;584871;242;24099;-84
2022/04/06 01:35:06;;;;;;;10.77;4.50;;;1.10;99.90;0.10;98513;;;;584911;242;24064;-85
2022/04/06 01:37:36;;;;;;;7.77;4.93;;;1.10;99.90;0.10;98521;;;;584828;242;24128;-85
2022/04/06 01:40:03;;;;;;;6.70;3.93;;;1.00;99.90;0.00;98517;;;;584705;242;24120;-83
2022/04/06 01:42:33;;;;;;;5.57;4.60;;;1.00;99.90;0.00;98522;;;;584772;242;24099;-85
2022/04/06 01:44:58;;;;;;;8.03;5.13;;;1.00;99.90;0.00;98521;;;;588551;242;24087;-85
2022/04/06 01:47:26;;;;;;;8.40;4.97;;;0.90;99.90;-0.10;98522;;;;593450;239;24047;-85
2022/04/06 01:52:41;;;;;;;8.88;4.55;;;0.80;99.90;-0.10;98517;;;;588628;240;35129;-85
2022/04/06 01:55:15;;;;;;;2.80;2.43;;;0.80;99.90;-0.20;98523;;;;584123;242;24049;-83
2022/04/06 01:57:43;;;;;;;3.60;2.40;;;0.80;99.90;-0.20;98514;;;;584191;242;24052;-83
2022/04/06 02:00:14;;;;;;;6.47;2.67;;;0.80;99.90;-0.20;98516;;;;583579;242;24164;-83
2022/04/06 02:02:42;;;;;;;9.90;5.17;;;0.80;99.90;-0.20;98513;;;;587638;242;24063;-84
2022/04/06 02:05:06;;;;;;;10.70;5.90;;;0.80;99.90;-0.20;98518;;;;585474;241;24110;-84
2022/04/06 02:07:38;;;;;;;8.53;5.47;;;0.70;99.90;-0.20;98520;;;;585195;241;24062;-85
2022/04/06 02:10:03;;;;;;;10.70;6.10;;;0.70;99.90;-0.20;98521;;;;582076;241;24083;-84
2022/04/06 02:12:31;;;;;;;8.17;5.40;;;0.70;99.90;-0.20;98530;;;;585309;242;24082;-85
2022/04/06 02:15:02;;;;;;;10.43;5.97;;;0.70;99.90;-0.20;98530;;;;585041;242;24088;-84
2022/04/06 02:17:30;;;;;;;11.90;5.77;;;0.80;99.90;-0.20;98529;;;;584924;242;24060;-85
2022/04/06 02:20:00;;;;;;;8.17;5.40;;;0.80;99.90;-0.20;98523;;;;594234;242;24126;-83
2022/04/06 02:22:29;;;;;;;9.47;5.87;;;0.80;99.90;-0.20;98527;;;;584684;242;24137;-85
2022/04/06 02:24:54;;;;;;;11.47;6.40;;;0.70;99.90;-0.20;98541;;;;584654;242;24109;-85
2022/04/06 02:27:22;;;;;;;11.47;6.37;;;0.80;99.90;-0.20;98536;;;;584911;242;24091;-84
2022/04/06 02:29:53;;;;;;;12.27;6.80;;;0.80;99.90;-0.20;98538;;;;587807;242;24079;-85
2022/04/06 02:32:19;;;;;;;12.53;6.07;;;0.80;99.90;-0.20;98529;;;;584641;242;24083;-85
2022/04/06 02:34:47;;;;;;;12.07;6.07;;;0.70;99.90;-0.20;98541;;;;584914;242;24122;-85
2022/04/06 02:37:18;;;;;;;11.77;6.43;;;0.70;99.90;-0.20;98534;;;;585019;242;24071;-83
2022/04/06 02:39:45;;;;;;;10.30;6.47;;;0.80;99.90;-0.20;98534;;;;584953;242;24088;-83
2022/04/06 02:42:11;;;;;;;10.07;6.07;;;0.70;99.90;-0.20;98530;;;;583767;242;24111;-82
2022/04/06 02:44:39;;;;;;;10.23;6.00;;;0.80;99.90;-0.20;98544;;;;585557;242;24098;-83
2022/04/06 02:47:07;;;;;;;10.57;6.23;;;0.70;99.90;-0.30;98528;;;;585494;242;24056;-84
2022/04/06 02:49:35;;;;;;;8.70;5.53;;;0.70;99.90;-0.30;98534;;;;594073;241;24074;-84
2022/04/06 02:52:07;;;;;;;15.00;6.83;;;0.70;99.90;-0.30;98536;;;;584464;242;24090;-84
2022/04/06 02:54:31;;;;;;;10.00;5.97;;;0.70;99.90;-0.30;98534;;;;584008;242;24096;-84
2022/04/06 02:57:01;;;;;;;14.17;6.30;;;0.70;99.90;-0.30;98541;;;;581197;242;24065;-82
2022/04/06 02:59:27;;;;;;;12.03;6.93;;;0.70;99.90;-0.30;98536;;;;583971;242;24068;-81
2022/04/06 03:01:56;;;;;;;15.33;6.17;;;0.70;99.90;-0.30;98535;;;;581072;242;24154;-82
2022/04/06 03:04:24;;;;;;;8.53;5.40;;;0.60;99.90;-0.30;98538;;;;584300;242;24069;-84
2022/04/06 03:06:52;;;;;;;11.70;5.60;;;0.70;99.90;-0.30;98541;;;;584597;242;24069;-83
2022/04/06 03:09:20;;;;;;;14.10;5.97;;;0.70;99.90;-0.30;98541;;;;585021;242;24085;-82
2022/04/06 03:11:52;;;;;;;13.83;6.07;;;0.70;99.90;-0.30;98546;;;;585132;242;24206;-84
2022/04/06 03:14:19;;;;;;;12.70;7.63;;;0.70;99.90;-0.20;98542;;;;583043;242;24069;-84
2022/04/06 03:16:48;;;;;;;11.87;6.20;;;0.70;99.90;-0.20;98539;;;;589005;241;24061;-83
2022/04/06 03:19:15;;;;;;;13.73;5.90;;;0.80;99.90;-0.20;98540;;;;585463;241;25102;-85
2022/04/06 03:21:40;;;;;;;11.23;6.23;;;0.80;99.90;-0.10;98549;;;;585126;241;24096;-84
2022/04/06 03:24:08;;;;;;;10.23;5.80;;;0.90;99.90;-0.10;98550;;;;581827;242;24080;-83
2022/04/06 03:26:37;;;;;;;9.17;5.77;;;1.00;99.90;0.00;98551;;;;584895;242;24111;-85
2022/04/06 03:29:04;;;;;;;11.87;6.37;;;0.90;99.90;0.00;98534;;;;584777;242;24082;-84
2022/04/06 03:31:32;;;;;;;9.03;5.63;;;1.00;99.90;0.10;98553;;;;584902;242;24091;-84
2022/04/06 03:34:00;;;;;;;12.33;5.87;;;1.00;99.90;0.10;98543;;;;584717;242;24171;-84
2022/04/06 03:36:31;;;;;;;13.47;6.10;;;1.00;99.90;0.10;98549;;;;585072;242;24111;-86
2022/04/06 03:38:56;;;;;;;8.73;5.33;;;1.10;99.90;0.20;98548;;;;581620;242;24084;-83
2022/04/06 03:41:24;;;;;;;10.27;5.47;;;1.10;99.90;0.20;98549;;;;582416;242;24093;-83
2022/04/06 03:43:52;;;;;;;10.87;5.67;;;1.20;99.90;0.20;98558;;;;584583;242;25101;-84
2022/04/06 03:46:23;;;;;;;14.97;5.90;;;1.20;99.90;0.30;98558;;;;584544;242;24182;-81
2022/04/06 03:48:50;;;;;;;10.50;6.37;;;1.30;99.90;0.30;98563;;;;584667;242;24064;-84
2022/04/06 03:51:19;;;;;;;14.77;6.13;;;1.30;99.90;0.40;98571;;;;584408;242;24093;-84
2022/04/06 03:53:44;;;;;;;11.70;5.75;;;1.40;99.90;0.40;98568;;;;575594;242;35314;-84
2022/04/06 03:56:12;;;;;;;8.03;3.40;;;1.40;99.90;0.50;98571;;;;584200;242;24057;-85
2022/04/06 03:58:40;;;;;;;5.20;3.63;;;1.50;99.90;0.50;98566;;;;584079;242;24069;-84
2022/04/06 04:01:07;;;;;;;13.10;4.50;;;1.50;99.90;0.50;98572;;;;581195;242;24165;-86
2022/04/06 04:03:35;;;;;;;9.73;3.80;;;1.50;99.90;0.50;98574;;;;584269;242;24126;-85
2022/04/06 04:06:03;;;;;;;8.80;4.10;;;1.50;99.90;0.60;98569;;;;584228;242;24060;-85
2022/04/06 04:08:31;;;;;;;6.30;3.70;;;1.50;99.90;0.60;98574;;;;584417;242;24077;-85
2022/04/06 04:11:00;;;;;;;6.50;3.70;;;1.50;99.90;0.60;98583;;;;584742;242;24077;-82
2022/04/06 04:13:28;;;;;;;4.97;3.87;;;1.50;99.90;0.60;98585;;;;582645;242;24056;-85
2022/04/06 04:15:56;;;;;;;8.07;4.77;;;1.50;99.90;0.60;98590;;;;584746;238;24075;-86
2022/04/06 04:18:24;;;;;;;13.20;4.20;;;1.50;99.90;0.60;98592;;;;584737;242;24098;-84
2022/04/06 04:21:32;;;;;;;13.50;4.17;;;1.60;99.90;0.60;98586;;;;584821;242;24125;-85
2022/04/06 04:23:20;;;;;;;4.10;3.67;;;1.60;99.90;0.70;98586;;;;588689;238;24056;-85
2022/04/06 04:25:48;;;;;;;10.40;4.00;;;1.60;99.90;0.70;98583;;;;584898;242;24119;-85
2022/04/06 04:28:16;;;;;;;10.67;4.20;;;1.70;99.90;0.70;98585;;;;586188;241;24074;-86
2022/04/06 04:30:44;;;;;;;8.73;4.50;;;1.70;99.90;0.80;98582;;;;585644;241;25417;-84
2022/04/06 04:33:12;;;;;;;15.37;4.70;;;1.80;99.90;0.80;98583;;;;585577;241;24073;-84
2022/04/06 04:35:40;;;;;;;7.40;4.27;;;1.70;99.90;0.90;98593;;;;585401;241;24049;-83
2022/04/06 04:38:08;;;;;;;5.20;4.37;;;1.80;99.90;0.90;98589;;;;585372;242;24057;-87
2022/04/06 04:40:40;;;;;;;10.50;4.27;;;1.90;99.90;0.90;98574;;;;585349;242;24086;-85
2022/04/06 04:43:04;;;;;;;9.73;4.10;;;1.90;99.90;1.00;98585;;;;584845;242;24079;-84
2022/04/06 04:45:33;;;;;;;6.27;3.47;;;2.00;99.90;1.00;98583;;;;585381;242;24087;-83
2022/04/06 04:48:03;;;;;;;7.60;4.53;;;1.90;99.90;1.10;98572;;;;585406;242;24063;-86
2022/04/06 04:50:29;;;;;;;8.03;4.20;;;2.00;99.90;1.10;98578;;;;584798;242;24133;-83
2022/04/06 04:52:56;;;;;;;8.03;4.47;;;2.00;99.90;1.20;98581;;;;593945;240;24084;-86
2022/04/06 04:55:24;;;;;;;11.83;5.00;;;2.10;99.90;1.20;98578;;;;585161;242;24101;-83
2022/04/06 04:57:52;;;;;;;9.73;6.03;;;2.20;99.90;1.30;98589;;;;585133;242;24171;-84
2022/04/06 05:00:20;;;;;;;12.97;6.77;;;2.20;99.90;1.40;98591;;;;585382;242;24118;-84
2022/04/06 05:02:49;;;;;;;8.90;5.70;;;2.40;99.90;1.40;98582;;;;585295;242;24194;-82
2022/04/06 05:05:20;;;;;;;7.47;5.50;;;2.40;99.90;1.50;98587;;;;585132;242;24108;-83
2022/04/06 05:07:45;;;;;;;15.30;5.90;;;2.50;99.90;1.60;98597;;;;584867;242;24087;-84
2022/04/06 05:10:16;;;;;;;6.93;4.70;;;2.50;99.90;1.70;98592;;;;584236;242;24058;-84
2022/04/06 05:12:42;;;;;;;10.50;5.97;;;2.60;99.90;1.80;98590;;;;593549;242;24082;-85
2022/04/06 05:15:13;;;;;;;10.60;5.80;;;2.70;99.90;1.90;98597;;;;584772;242;24068;-85
2022/04/06 05:17:37;;;;;;;9.70;5.93;;;2.80;99.90;2.00;98610;;;;584499;242;24100;-85
2022/04/06 05:20:05;;;;;;;8.70;4.93;;;2.90;99.90;2.10;98605;;;;581684;242;24067;-83
2022/04/06 05:22:33;;;;;;;18.00;8.70;;;3.00;99.90;2.20;98599;;;;583538;242;35119;-83
2022/04/06 05:25:04;;;;;;;13.93;6.87;;;3.10;99.90;2.30;98610;;;;585698;242;24069;-81
2022/04/06 05:27:29;;;;;;;16.40;5.90;;;3.20;99.90;2.40;98604;;;;594422;241;24103;-82
2022/04/06 05:29:57;;;;;;;8.67;5.57;;;3.40;99.90;2.50;98611;;;;585355;242;24082;-82
2022/04/06 05:32:25;;;;;;;10.40;5.10;;;3.40;99.90;2.70;98612;;;;594498;239;24114;-82
2022/04/06 05:34:53;;;;;;;9.60;5.17;;;3.60;99.90;2.80;98619;;;;585043;242;24109;-82
2022/04/06 05:37:21;;;;;;;7.23;5.63;;;3.70;99.90;2.90;98614;;;;585115;242;24112;-81
2022/04/06 05:39:52;;;;;;;4.93;4.37;;;3.80;99.90;3.10;98618;;;;586254;241;24063;-83
2022/04/06 05:42:17;;;;;;;9.00;4.80;;;4.00;99.90;3.30;98608;;;;582559;241;24157;-82
2022/04/06 05:44:45;;;;;;;13.10;5.87;;;4.10;99.90;3.50;98610;;;;585741;241;24080;-82
2022/04/06 05:47:13;;;;;;;9.17;5.97;;;4.30;99.90;3.80;98603;;;;585680;241;24101;-81
2022/04/06 05:49:43;;;;;;;12.33;6.43;;;4.60;99.90;4.00;98612;;;;585472;242;24196;-83
2022/04/06 05:52:09;;;;;;;14.30;6.33;;;4.80;99.90;4.20;98611;;;;583791;242;24142;-87
2022/04/06 05:54:36;;;;;;;8.27;6.30;;;5.00;99.90;4.40;98621;;;;588146;242;24143;-86
2022/04/06 05:57:04;;;;;;;14.37;6.80;;;5.20;99.90;4.50;98627;;;;585441;242;24049;-85
2022/04/06 05:59:32;;;;;;;11.30;7.20;;;5.40;99.90;4.60;98634;;;;585196;242;24112;-84
2022/04/06 06:02:00;;;;;;;12.60;7.80;;;5.50;99.90;4.60;98628;;;;585235;242;24047;-87
2022/04/06 06:04:29;;;;;;;15.93;7.67;;;5.50;99.90;4.50;98632;;;;585030;242;24068;-87
2022/04/06 06:06:57;;;;;;;15.80;7.53;;;5.50;99.90;4.50;98628;;;;585759;242;24081;-84
2022/04/06 06:09:25;;;;;;;16.10;7.07;;;5.50;99.90;4.50;98629;;;;585865;242;24115;-84
2022/04/06 06:11:54;;;;;;;10.77;7.40;;;5.50;99.90;4.60;98628;;;;585886;242;24096;-82
2022/04/06 06:14:21;;;;;;;8.43;6.23;;;5.60;99.90;4.60;98645;;;;594456;242;24074;-83
2022/04/06 06:16:49;;;;;;;10.53;7.03;;;5.60;99.90;4.80;98629;;;;585301;242;24081;-85
2022/04/06 06:19:20;;;;;;;13.00;6.93;;;5.70;99.90;4.90;98644;;;;581389;242;24092;-84
2022/04/06 06:21:49;;;;;;;12.73;7.73;;;5.80;99.90;5.10;98638;;;;593293;242;24099;-84
2022/04/06 06:24:16;;;;;;;8.73;7.27;;;6.00;99.90;5.20;98642;;;;584372;242;25107;-82
2022/04/06 06:26:44;;;;;;;15.27;7.27;;;6.10;99.90;5.40;98641;;;;590359;242;24061;-85
2022/04/06 06:29:12;;;;;;;10.90;7.17;;;6.30;99.90;5.60;98641;;;;584644;242;24092;-85
2022/04/06 06:31:37;;;;;;;13.17;7.37;;;6.80;99.90;5.90;98645;;;;587775;241;24091;-85
2022/04/06 06:34:05;;;;;;;8.63;6.20;;;6.70;99.90;6.10;98643;;;;584879;242;24136;-83
2022/04/06 06:36:36;;;;;;;12.47;6.90;;;7.00;99.90;6.30;98643;;;;593926;242;24113;-85
2022/04/06 06:39:01;;;;;;;10.87;6.47;;;7.20;99.90;6.40;98645;;;;587544;242;24070;-83
2022/04/06 06:41:33;;;;;;;9.00;6.20;;;7.30;99.90;6.50;98645;;;;584966;242;24206;-87
2022/04/06 06:43:58;;;;;;;10.57;6.57;;;7.40;99.90;6.50;98648;;;;584854;242;24147;-86
2022/04/06 06:46:27;;;;;;;10.97;6.80;;;7.50;99.90;6.70;98644;;;;585595;242;24072;-87
2022/04/06 06:49:00;;;;;;;11.40;5.87;;;7.60;99.90;6.80;98653;;;;594503;238;24093;-88
2022/04/06 06:51:23;;;;;;;7.83;5.83;;;7.70;99.90;6.90;98646;;;;586515;241;24055;-83
2022/04/06 06:53:51;;;;;;;8.67;5.33;;;7.80;99.90;7.00;98648;;;;586335;241;24183;-85
2022/04/06 06:56:18;;;;;;;7.10;5.10;;;7.90;99.90;7.10;98648;;;;595101;239;24100;-85
2022/04/06 06:58:47;;;;;;;8.50;5.50;;;8.00;99.90;7.20;98655;;;;585690;241;24142;-86
2022/04/06 07:01:19;;;;;;;10.27;5.77;;;8.10;99.90;7.20;98645;;;;585382;242;24179;-87
2022/04/06 07:03:43;;;;;;;7.53;5.37;;;8.20;99.90;7.30;98643;;;;584688;242;24103;-87
2022/04/06 07:06:11;;;;;;;6.97;4.50;;;8.30;99.90;7.40;98646;;;;593863;242;24118;-88
2022/04/06 07:08:39;;;;;;;7.37;4.97;;;8.30;99.90;7.50;98644;;;;584628;242;24194;-88
2022/04/06 07:11:07;;;;;;;5.40;4.53;;;8.40;99.90;7.60;98646;;;;584634;242;24061;-87
2022/04/06 07:13:35;;;;;;;7.27;5.30;;;8.50;99.90;7.70;98645;;;;584972;242;24193;-89
2022/04/06 07:16:05;;;;;;;7.33;5.00;;;8.60;99.90;7.80;98640;;;;584903;242;24148;-89
2022/04/06 07:18:31;;;;;;;8.30;5.50;;;8.70;99.90;8.20;98639;;;;584810;242;24156;-89
2022/04/06 07:21:01;;;;;;;7.60;5.13;;;8.90;99.90;8.70;98631;;;;585106;242;24127;-89
2022/04/06 07:23:29;;;;;;;6.43;5.23;;;9.40;99.90;9.10;98637;;;;594218;242;24079;-87
2022/04/06 07:25:57;;;;;;;7.23;5.30;;;10.40;99.90;9.60;98642;;;;584805;238;24097;-87
2022/04/06 07:28:25;;;;;;;8.97;4.40;;;10.40;99.90;10.00;98635;;;;584749;242;24148;-90
2022/04/06 07:30:53;;;;;;;6.67;5.03;;;10.80;99.90;10.10;98632;;;;593818;242;24084;-84
2022/04/06 07:33:21;;;;;;;7.33;5.07;;;11.10;99.90;10.00;98627;;;;584536;242;24130;-88
2022/04/06 07:35:50;;;;;;;8.90;5.00;;;11.00;99.90;10.00;98627;;;;584580;241;24201;-85
2022/04/06 07:38:18;;;;;;;5.53;4.73;;;11.00;99.90;9.70;98627;;;;584567;241;24107;-88
2022/04/06 07:40:47;;;;;;;8.20;4.40;;;10.60;99.90;9.50;98632;;;;584571;241;24090;-87
2022/04/06 07:43:19;;;;;;;6.87;4.50;;;10.40;99.90;9.40;98640;;;;584583;242;24120;-85
2022/04/06 07:45:43;;;;;;;5.67;3.93;;;10.40;99.90;9.30;98638;;;;584235;242;24106;-86
2022/04/06 07:48:12;;;;;;;5.67;4.03;;;10.20;99.90;9.20;98634;;;;584531;242;24087;-87
2022/04/06 07:50:40;;;;;;;6.87;4.20;;;10.10;99.90;9.10;98630;;;;584012;242;24078;-84
2022/04/06 07:53:08;;;;;;;8.53;3.97;;;10.10;99.90;9.00;98601;;;;584552;242;24133;-87
2022/04/06 07:55:36;;;;;;;7.07;3.67;;;10.00;99.90;9.00;98626;;;;584586;242;24075;-85
2022/04/06 07:58:04;;;;;;;5.23;3.87;;;10.00;99.90;9.20;98622;;;;584185;242;24086;-87
2022/04/06 08:00:33;;;;;;;5.57;3.00;;;10.00;99.90;9.60;98626;;;;584099;242;24076;-86
2022/04/06 08:03:01;;;;;;;5.53;3.30;;;10.30;99.90;9.80;98619;;;;585169;241;24110;-84
2022/04/06 08:05:28;;;;;;;3.50;3.00;;;10.60;99.90;9.70;98618;;;;585132;241;24067;-84
2022/04/06 08:07:56;;;;;;;8.80;3.10;;;10.60;99.90;9.50;98621;;;;584838;241;24173;-85
2022/04/06 08:10:24;;;;;;;3.10;2.90;;;10.40;99.90;9.40;98620;;;;584977;242;24104;-84
2022/04/06 08:12:52;;;;;;;3.17;2.20;;;10.30;99.90;9.40;98619;;;;584505;242;24078;-83
2022/04/06 08:15:20;;;;;;;5.17;3.23;;;10.30;99.90;9.40;98615;;;;585017;242;24072;-85
2022/04/06 08:17:50;;;;;;;5.60;3.20;;;10.30;99.90;9.50;98609;;;;585170;241;24099;-85
2022/04/06 08:20:19;;;;;;;4.30;2.40;;;10.30;99.90;9.50;98606;;;;584864;242;24056;-84
2022/04/06 08:22:46;;;;;;;8.80;2.60;;;10.30;99.90;9.40;98610;;;;582609;242;24066;-88
2022/04/06 08:25:15;;;;;;;3.63;3.00;;;10.30;99.90;9.40;98621;;;;584866;242;24157;-87
2022/04/06 08:27:42;;;;;;;6.93;3.00;;;10.30;99.90;9.50;98613;;;;582578;242;24089;-88
2022/04/06 08:30:10;;;;;;;4.83;2.93;;;10.30;99.90;9.50;98622;;;;584963;242;24060;-88
2022/04/06 08:32:38;;;;;;;3.90;2.37;;;10.30;99.90;9.50;98629;;;;582810;242;24158;-86
2022/04/06 08:35:05;;;;;;;3.63;3.13;;;10.30;99.90;9.50;98625;;;;585205;242;24092;-89
2022/04/06 08:37:36;;;;;;;6.57;2.80;;;10.40;99.90;9.60;98629;;;;585285;242;24064;-86
2022/04/06 08:40:02;;;;;;;8.27;2.83;;;10.40;99.90;9.50;98642;;;;593843;242;24064;-86
2022/04/06 08:42:33;;;;;;;7.00;3.00;;;10.30;99.90;9.30;98634;;;;584563;242;25100;-89
2022/04/06 08:45:04;;;;;;;4.73;2.63;;;10.20;99.90;9.30;98635;;;;584375;242;24131;-89
2022/04/06 08:47:34;;;;;;;5.30;2.30;;;10.10;99.90;9.30;98629;;;;584689;242;24070;-89
2022/04/06 08:50:06;;;;;;;4.90;2.93;;;10.10;99.90;9.30;98627;;;;584674;242;24123;-87
2022/04/06 08:52:38;;;;;;;5.80;3.23;;;10.20;99.90;9.40;98628;;;;582717;242;24096;-87
2022/04/06 08:55:02;;;;;;;7.30;3.47;;;10.20;99.90;9.60;98629;;;;582211;242;24086;-87
2022/04/06 08:57:32;;;;;;;3.97;2.90;;;10.40;99.90;9.90;98621;;;;584205;242;24061;-87
2022/04/06 08:59:58;;;;;;;3.30;2.77;;;10.60;99.90;10.00;98610;;;;584322;242;24168;-88
2022/04/06 09:02:27;;;;;;;4.97;3.20;;;10.70;99.90;9.90;98618;;;;584554;242;25117;-88
2022/04/06 09:04:58;;;;;;;4.10;2.40;;;10.70;99.90;9.50;98614;;;;584398;242;24057;-89
2022/04/06 09:07:23;;;;;;;3.83;2.03;;;10.50;99.90;9.10;98603;;;;582420;242;24077;-87
2022/04/06 09:09:54;;;;;;;1.93;1.73;;;9.90;99.90;9.00;98615;;;;584613;242;24071;-87
2022/04/06 09:12:19;;;;;;;3.50;1.83;;;9.90;99.90;8.80;98622;;;;584309;242;24075;-88
2022/04/06 09:14:47;;;;;;;1.50;1.40;;;9.70;99.90;8.60;98624;;;;586106;241;24054;-88
2022/04/06 09:17:23;;;;;;;1.17;1.17;;;9.30;99.90;8.40;98623;;;;594386;241;24078;-88
2022/04/06 09:19:47;;;;;;;2.97;1.00;;;9.30;99.90;8.30;98612;;;;594007;241;24068;-88
2022/04/06 09:22:18;;;;;;;1.70;1.50;;;9.20;99.90;8.10;98611;;;;584850;242;24091;-86
2022/04/06 09:24:42;;;;;;;1.97;1.80;;;9.00;99.90;7.90;98605;;;;584738;242;24102;-87
2022/04/06 09:27:10;;;;;;;3.97;2.10;;;8.80;99.90;7.70;98595;;;;584893;242;24085;-87
2022/04/06 09:29:39;;;;;;;4.67;2.37;;;8.40;99.90;7.60;98590;;;;584752;242;24068;-87
2022/04/06 09:32:07;;;;;;;3.73;2.30;;;8.40;99.90;7.80;98589;;;;584768;242;24061;-88
2022/04/06 09:34:35;;;;;;;4.57;2.27;;;8.60;99.90;8.00;98585;;;;584263;242;24128;-87
2022/04/06 09:37:24;;;;;;;2.40;1.70;;;8.70;99.90;8.10;98578;;;;585000;242;24077;-86
2022/04/06 09:39:52;;;;;;;3.20;1.97;;;8.80;99.90;8.00;98579;;;;583367;242;24087;-86
2022/04/06 09:42:26;;;;;;;2.73;1.97;;;8.80;99.90;7.70;98575;;;;584796;242;24085;-87
2022/04/06 09:47:44;;;;;;;3.03;2.33;;;8.30;99.90;7.40;98567;;;;594553;242;24185;-86
2022/04/06 09:50:20;;;;;;;4.23;2.03;;;8.20;99.90;7.40;98567;;;;588050;242;24169;-82
2022/04/06 09:52:45;;;;;;;8.10;3.10;;;8.10;99.90;7.30;98577;;;;582371;242;24090;-87
2022/04/06 09:55:16;;;;;;;3.57;2.73;;;8.10;99.90;7.20;98575;;;;584701;242;24177;-87
2022/04/06 09:57:51;;;;;;;5.20;3.00;;;8.00;99.90;7.10;98566;;;;593779;242;24114;-86
2022/04/06 10:00:28;;;;;;;6.00;3.63;;;7.90;99.90;7.10;98561;;;;584489;242;24111;-87
2022/04/06 10:03:11;;;;;;;6.97;3.17;;;7.90;99.90;7.10;98544;;;;593677;242;24073;-84
2022/04/06 10:05:39;;;;;;;4.27;3.23;;;7.80;99.90;6.90;98549;;;;584658;242;24131;-85
2022/04/06 10:08:11;;;;;;;9.40;3.93;;;7.70;99.90;6.80;98557;;;;585240;238;24060;-84
2022/04/06 10:10:35;;;;;;;6.93;3.77;;;7.60;99.90;6.70;98550;;;;584879;242;24123;-81
2022/04/06 10:13:10;;;;;;;3.60;3.03;;;7.40;99.90;6.60;98552;;;;584889;242;24123;-83
2022/04/06 10:15:40;;;;;;;4.67;3.47;;;7.30;99.90;6.60;98545;;;;582472;242;24123;-88
2022/04/06 10:18:08;;;;;;;4.67;3.07;;;7.30;99.90;6.60;98537;;;;584280;242;24068;-87
2022/04/06 10:20:36;;;;;;;7.03;3.60;;;7.30;99.90;6.50;98535;;;;584766;242;24068;-88
2022/04/06 10:23:31;;;;;;;7.43;3.07;;;7.20;99.90;6.40;98534;;;;584852;242;24060;-86
2022/04/06 10:26:15;;;;;;;6.07;2.67;;;7.10;99.90;6.30;98534;;;;585684;241;24068;-84
2022/04/06 10:28:44;;;;;;;5.17;2.87;;;7.10;99.90;6.20;98521;;;;586050;241;24060;-87
2022/04/06 10:31:20;;;;;;;3.53;2.67;;;7.00;99.90;6.10;98529;;;;585683;241;24108;-87
2022/04/06 10:33:47;;;;;;;3.20;2.80;;;6.90;99.90;6.10;98524;;;;585348;242;24072;-85
2022/04/06 10:36:19;;;;;;;2.47;2.30;;;6.90;99.90;5.90;98519;;;;585100;242;24067;-87
2022/04/06 10:39:10;;;;;;;2.17;2.07;;;6.70;99.90;5.70;98511;;;;585303;242;24067;-87
2022/04/06 10:41:33;;;;;;;5.93;2.53;;;6.60;99.90;5.70;98508;;;;585042;242;24055;-88
2022/04/06 10:44:01;;;;;;;3.20;2.60;;;6.40;99.90;5.70;98496;;;;584690;242;24058;-89
2022/04/06 10:46:40;;;;;;;9.20;2.80;;;6.50;99.90;5.80;98488;;;;585020;242;24042;-87
2022/04/06 10:49:18;;;;;;;4.37;2.73;;;6.50;99.90;5.80;98490;;;;584920;242;24130;-89
2022/04/06 10:51:40;;;;;;;2.13;1.93;;;6.60;99.90;5.80;98486;;;;588084;241;24053;-87
2022/04/06 10:54:14;;;;;;;2.33;2.10;;;6.50;99.90;5.70;98474;;;;584244;242;24113;-87
2022/04/06 10:56:52;;;;;;;5.00;2.73;;;6.50;99.90;5.60;98475;;;;587837;242;24053;-87
2022/04/06 10:59:21;;;;;;;3.17;2.70;;;6.40;99.90;5.60;98469;;;;584492;242;24102;-86
2022/04/06 11:01:52;;;;;;;8.97;3.27;;;6.40;99.90;5.50;98481;;;;584891;242;24077;-88
2022/04/06 11:04:17;;;;;;;3.83;3.27;;;6.30;99.90;5.40;98479;;;;592427;242;24068;-89
2022/04/06 11:06:48;;;;;;;4.30;3.63;;;6.20;99.90;5.30;98469;;;;584115;242;24084;-88
2022/04/06 11:12:23;;;;;;;6.17;2.67;;;6.10;99.90;5.30;98459;;;;593868;242;24065;-88
2022/04/06 11:14:51;;;;;;;4.07;3.33;;;6.10;99.90;5.30;98474;;;;584339;242;24081;-87
2022/04/06 11:17:35;;;;;;;5.17;3.60;;;6.00;99.90;5.30;98479;;;;590893;242;24080;-89
2022/04/06 11:20:03;;;;;;;3.67;3.27;;;6.00;99.90;5.30;98467;;;;587681;242;24094;-88
2022/04/06 11:22:32;;;;;;;9.30;3.50;;;6.00;99.90;5.20;98449;;;;583770;242;24112;-88
2022/04/06 11:24:59;;;;;;;4.47;3.50;;;6.00;99.90;5.20;98454;;;;584817;242;24083;-88
2022/04/06 11:27:33;;;;;;;6.20;4.27;;;6.00;99.90;5.30;98457;;;;593912;242;24066;-88
2022/04/06 11:30:12;;;;;;;5.87;4.00;;;6.10;99.90;5.40;98462;;;;584343;242;24098;-89
2022/04/06 11:32:38;;;;;;;7.53;3.90;;;6.10;99.90;5.40;98445;;;;582522;242;24049;-88
2022/04/06 11:35:06;;;;;;;7.47;3.73;;;6.20;99.90;5.30;98444;;;;593924;242;24115;-88
2022/04/06 11:37:49;;;;;;;4.40;3.83;;;6.10;99.90;5.30;98444;;;;585737;241;24200;-89
2022/04/06 11:40:14;;;;;;;9.50;4.10;;;6.10;99.90;5.30;98435;;;;585537;241;25109;-88
2022/04/06 11:42:41;;;;;;;4.43;3.63;;;6.10;99.90;5.30;98429;;;;585164;241;24193;-87
2022/04/06 11:45:10;;;;;;;5.70;4.17;;;6.00;99.90;5.20;98434;;;;594909;241;24086;-88